International Virtual Aviation Organisation

Russian Federation and Kazakhstan MCD

 

Карточка аэропорта UACC

Внимание!
Информация на этой странице в стадии наполнения.
Если вы не увидели какой-то информации, или заметили неточность - пожалуйста сообщите нам!
Спасибо!
Команда RU-STAFF
Название аэропортаНур-Султан
Название аэропорта (англ.)Nur-Sultan
Превышение1165 ft. (355.1 m.)
Координаты51°1.3319999999999', 71°28.014'
Высота перехода10000
Эшелон переходаby ATC
Коды ответчика0601-0627, 7201-7217
Зона ОрВДНур-Султан РПИ (UACN)
Данные METARUACC 041100Z 06006MPS 9000 NSC M20/M23 Q1028 R04/85//60 NOSIG RMK QFE739/0986
Проноз погоды (TAF)UACC 040500Z 0406/0506 04005MPS 9999 SCT011 BKN100 TXM18/0409Z TNM24/0501Z TEMPO 0416/0504 3100 BR FEW004
NOTAMshow/hide NOTAM
AWOS   TABLE

Информация о ВПП

ВПП Длина ВПП (м.) Покрытие Курс ВПП Частота ILS
043500Асфальтобетон35109.5
223500Асфальтобетон215111.7

Диспетчерские позиции

Позывной Наименование органа УВД Частота
UACC_TWRНур-Султан Вышка118.7
UACC_R_APPНур-Султан Круг120.7
UACC_APPНур-Султан Подход124.6
UACC_GNDНур-Султан Руление119.6



Спутниковое изображение